sensor_id;sensor_type;location;lat;lon;timestamp;P1;durP1;ratioP1;P2;durP2;ratioP2
43487;SDS011;29078;41.932;25.554;2022-10-13T00:01:18;3.33;;;2.53;;
43487;SDS011;29078;41.932;25.554;2022-10-13T00:03:45;5.18;;;2.45;;
43487;SDS011;29078;41.932;25.554;2022-10-13T00:06:12;3.10;;;2.35;;
43487;SDS011;29078;41.932;25.554;2022-10-13T00:08:39;3.15;;;2.17;;
43487;SDS011;29078;41.932;25.554;2022-10-13T00:11:09;3.70;;;2.63;;
43487;SDS011;29078;41.932;25.554;2022-10-13T00:13:42;4.28;;;2.65;;
43487;SDS011;29078;41.932;25.554;2022-10-13T00:16:08;4.25;;;2.70;;
43487;SDS011;29078;41.932;25.554;2022-10-13T00:18:35;5.75;;;3.05;;
43487;SDS011;29078;41.932;25.554;2022-10-13T00:21:05;3.92;;;2.60;;
43487;SDS011;29078;41.932;25.554;2022-10-13T00:23:32;4.93;;;3.05;;
43487;SDS011;29078;41.932;25.554;2022-10-13T00:25:58;2.80;;;2.17;;
43487;SDS011;29078;41.932;25.554;2022-10-13T00:28:27;3.42;;;2.25;;
43487;SDS011;29078;41.932;25.554;2022-10-13T00:30:53;2.65;;;2.45;;
43487;SDS011;29078;41.932;25.554;2022-10-13T00:33:18;5.38;;;2.67;;
43487;SDS011;29078;41.932;25.554;2022-10-13T00:35:46;3.67;;;2.42;;
43487;SDS011;29078;41.932;25.554;2022-10-13T00:38:12;2.67;;;2.25;;
43487;SDS011;29078;41.932;25.554;2022-10-13T00:40:53;3.95;;;2.38;;
43487;SDS011;29078;41.932;25.554;2022-10-13T00:43:21;3.53;;;2.35;;
43487;SDS011;29078;41.932;25.554;2022-10-13T00:45:51;3.35;;;2.50;;
43487;SDS011;29078;41.932;25.554;2022-10-13T00:48:18;3.63;;;2.17;;
43487;SDS011;29078;41.932;25.554;2022-10-13T00:50:46;3.67;;;2.17;;
43487;SDS011;29078;41.932;25.554;2022-10-13T00:53:13;3.22;;;2.38;;
43487;SDS011;29078;41.932;25.554;2022-10-13T00:55:40;3.78;;;2.25;;
43487;SDS011;29078;41.932;25.554;2022-10-13T00:58:09;3.72;;;2.20;;
43487;SDS011;29078;41.932;25.554;2022-10-13T01:00:40;5.22;;;2.78;;
43487;SDS011;29078;41.932;25.554;2022-10-13T01:03:09;2.92;;;2.20;;
43487;SDS011;29078;41.932;25.554;2022-10-13T01:05:35;3.83;;;2.33;;
43487;SDS011;29078;41.932;25.554;2022-10-13T01:08:02;4.97;;;2.55;;
43487;SDS011;29078;41.932;25.554;2022-10-13T01:10:33;3.42;;;2.40;;
43487;SDS011;29078;41.932;25.554;2022-10-13T01:21:44;3.83;;;2.20;;
43487;SDS011;29078;41.932;25.554;2022-10-13T01:27:12;4.03;;;2.92;;
43487;SDS011;29078;41.932;25.554;2022-10-13T01:32:40;3.50;;;2.50;;
43487;SDS011;29078;41.932;25.554;2022-10-13T01:37:57;4.90;;;2.60;;
43487;SDS011;29078;41.932;25.554;2022-10-13T01:40:44;5.93;;;2.88;;
43487;SDS011;29078;41.932;25.554;2022-10-13T01:43:12;6.95;;;2.60;;
43487;SDS011;29078;41.932;25.554;2022-10-13T01:45:46;4.28;;;2.55;;
43487;SDS011;29078;41.932;25.554;2022-10-13T01:48:15;3.90;;;2.42;;
43487;SDS011;29078;41.932;25.554;2022-10-13T01:50:42;5.13;;;2.70;;
43487;SDS011;29078;41.932;25.554;2022-10-13T01:53:08;5.00;;;2.67;;
43487;SDS011;29078;41.932;25.554;2022-10-13T01:55:36;6.78;;;2.35;;
43487;SDS011;29078;41.932;25.554;2022-10-13T01:58:01;3.92;;;2.30;;
43487;SDS011;29078;41.932;25.554;2022-10-13T02:00:27;3.85;;;2.22;;
43487;SDS011;29078;41.932;25.554;2022-10-13T02:05:56;5.03;;;2.53;;
43487;SDS011;29078;41.932;25.554;2022-10-13T02:11:15;3.65;;;2.40;;
43487;SDS011;29078;41.932;25.554;2022-10-13T02:13:45;5.95;;;2.10;;
43487;SDS011;29078;41.932;25.554;2022-10-13T02:16:12;5.20;;;2.53;;
43487;SDS011;29078;41.932;25.554;2022-10-13T02:18:40;4.65;;;2.25;;
43487;SDS011;29078;41.932;25.554;2022-10-13T02:21:06;3.72;;;2.35;;
43487;SDS011;29078;41.932;25.554;2022-10-13T02:23:31;4.53;;;2.53;;
43487;SDS011;29078;41.932;25.554;2022-10-13T02:25:57;3.95;;;2.30;;
43487;SDS011;29078;41.932;25.554;2022-10-13T02:28:24;4.28;;;2.17;;
43487;SDS011;29078;41.932;25.554;2022-10-13T02:30:50;5.72;;;2.28;;
43487;SDS011;29078;41.932;25.554;2022-10-13T02:33:15;5.72;;;2.40;;
43487;SDS011;29078;41.932;25.554;2022-10-13T02:35:41;3.03;;;1.73;;
43487;SDS011;29078;41.932;25.554;2022-10-13T02:38:07;4.63;;;2.22;;
43487;SDS011;29078;41.932;25.554;2022-10-13T02:40:33;4.18;;;2.00;;
43487;SDS011;29078;41.932;25.554;2022-10-13T02:42:59;4.03;;;2.28;;
43487;SDS011;29078;41.932;25.554;2022-10-13T02:45:25;4.68;;;2.35;;
43487;SDS011;29078;41.932;25.554;2022-10-13T02:47:50;4.80;;;2.10;;
43487;SDS011;29078;41.932;25.554;2022-10-13T02:50:16;5.03;;;2.08;;
43487;SDS011;29078;41.932;25.554;2022-10-13T02:52:41;4.88;;;2.15;;
43487;SDS011;29078;41.932;25.554;2022-10-13T02:55:07;2.40;;;2.00;;
43487;SDS011;29078;41.932;25.554;2022-10-13T02:57:32;2.00;;;1.60;;
43487;SDS011;29078;41.932;25.554;2022-10-13T02:59:58;3.35;;;2.00;;
43487;SDS011;29078;41.932;25.554;2022-10-13T03:02:25;4.65;;;2.25;;
43487;SDS011;29078;41.932;25.554;2022-10-13T03:04:51;3.40;;;2.00;;
43487;SDS011;29078;41.932;25.554;2022-10-13T03:07:17;3.38;;;2.30;;
43487;SDS011;29078;41.932;25.554;2022-10-13T03:09:42;3.95;;;2.42;;
43487;SDS011;29078;41.932;25.554;2022-10-13T03:12:08;2.88;;;2.10;;
43487;SDS011;29078;41.932;25.554;2022-10-13T03:14:33;2.50;;;2.10;;
43487;SDS011;29078;41.932;25.554;2022-10-13T03:16:59;5.07;;;2.33;;
43487;SDS011;29078;41.932;25.554;2022-10-13T03:19:24;2.83;;;2.30;;
43487;SDS011;29078;41.932;25.554;2022-10-13T03:21:50;3.10;;;2.35;;
43487;SDS011;29078;41.932;25.554;2022-10-13T03:24:15;4.03;;;2.22;;
43487;SDS011;29078;41.932;25.554;2022-10-13T03:26:40;5.00;;;2.42;;
43487;SDS011;29078;41.932;25.554;2022-10-13T03:29:06;5.45;;;2.50;;
43487;SDS011;29078;41.932;25.554;2022-10-13T03:31:31;3.17;;;2.50;;
43487;SDS011;29078;41.932;25.554;2022-10-13T03:33:57;3.20;;;2.60;;
43487;SDS011;29078;41.932;25.554;2022-10-13T03:36:22;5.40;;;2.70;;
43487;SDS011;29078;41.932;25.554;2022-10-13T03:38:47;3.88;;;2.60;;
43487;SDS011;29078;41.932;25.554;2022-10-13T03:41:14;6.47;;;3.30;;
43487;SDS011;29078;41.932;25.554;2022-10-13T03:43:42;4.03;;;2.90;;
43487;SDS011;29078;41.932;25.554;2022-10-13T03:46:12;4.07;;;3.03;;
43487;SDS011;29078;41.932;25.554;2022-10-13T03:48:39;3.90;;;2.53;;
43487;SDS011;29078;41.932;25.554;2022-10-13T03:51:08;2.88;;;2.33;;
43487;SDS011;29078;41.932;25.554;2022-10-13T03:53:35;6.37;;;2.63;;
43487;SDS011;29078;41.932;25.554;2022-10-13T03:56:01;3.70;;;2.67;;
43487;SDS011;29078;41.932;25.554;2022-10-13T03:58:27;4.35;;;2.63;;
43487;SDS011;29078;41.932;25.554;2022-10-13T04:00:53;4.85;;;2.65;;
43487;SDS011;29078;41.932;25.554;2022-10-13T04:03:18;3.72;;;2.95;;
43487;SDS011;29078;41.932;25.554;2022-10-13T04:05:44;6.13;;;3.20;;
43487;SDS011;29078;41.932;25.554;2022-10-13T04:08:10;4.85;;;3.20;;
43487;SDS011;29078;41.932;25.554;2022-10-13T04:10:36;5.32;;;3.03;;
43487;SDS011;29078;41.932;25.554;2022-10-13T04:13:02;4.50;;;2.72;;
43487;SDS011;29078;41.932;25.554;2022-10-13T04:15:27;4.75;;;2.92;;
43487;SDS011;29078;41.932;25.554;2022-10-13T04:17:53;4.35;;;2.67;;
43487;SDS011;29078;41.932;25.554;2022-10-13T04:20:18;7.00;;;2.90;;
43487;SDS011;29078;41.932;25.554;2022-10-13T04:22:44;6.45;;;2.90;;
43487;SDS011;29078;41.932;25.554;2022-10-13T04:25:09;4.63;;;3.00;;
43487;SDS011;29078;41.932;25.554;2022-10-13T04:27:34;5.55;;;2.88;;
43487;SDS011;29078;41.932;25.554;2022-10-13T04:30:04;6.57;;;3.50;;
43487;SDS011;29078;41.932;25.554;2022-10-13T04:32:30;10.15;;;4.18;;
43487;SDS011;29078;41.932;25.554;2022-10-13T04:34:56;7.10;;;4.63;;
43487;SDS011;29078;41.932;25.554;2022-10-13T04:37:22;10.32;;;3.95;;
43487;SDS011;29078;41.932;25.554;2022-10-13T04:39:48;8.15;;;4.32;;
43487;SDS011;29078;41.932;25.554;2022-10-13T04:42:13;7.05;;;4.13;;
43487;SDS011;29078;41.932;25.554;2022-10-13T04:44:38;10.05;;;5.32;;
43487;SDS011;29078;41.932;25.554;2022-10-13T04:47:04;17.23;;;7.03;;
43487;SDS011;29078;41.932;25.554;2022-10-13T04:49:29;9.40;;;5.10;;
43487;SDS011;29078;41.932;25.554;2022-10-13T04:51:55;7.68;;;4.95;;
43487;SDS011;29078;41.932;25.554;2022-10-13T04:54:20;8.13;;;5.22;;
43487;SDS011;29078;41.932;25.554;2022-10-13T04:56:46;12.70;;;6.72;;
43487;SDS011;29078;41.932;25.554;2022-10-13T04:59:11;12.88;;;9.02;;
43487;SDS011;29078;41.932;25.554;2022-10-13T05:01:37;10.38;;;7.80;;
43487;SDS011;29078;41.932;25.554;2022-10-13T05:04:03;13.63;;;7.75;;
43487;SDS011;29078;41.932;25.554;2022-10-13T05:06:32;17.95;;;10.10;;
43487;SDS011;29078;41.932;25.554;2022-10-13T05:08:59;12.10;;;9.25;;
43487;SDS011;29078;41.932;25.554;2022-10-13T05:11:25;13.07;;;8.77;;
43487;SDS011;29078;41.932;25.554;2022-10-13T05:13:52;10.90;;;7.28;;
43487;SDS011;29078;41.932;25.554;2022-10-13T05:16:18;13.00;;;6.35;;
43487;SDS011;29078;41.932;25.554;2022-10-13T05:18:45;10.60;;;6.13;;
43487;SDS011;29078;41.932;25.554;2022-10-13T05:23:41;10.50;;;4.93;;
43487;SDS011;29078;41.932;25.554;2022-10-13T05:26:11;11.93;;;5.28;;
43487;SDS011;29078;41.932;25.554;2022-10-13T05:28:38;6.55;;;4.65;;
43487;SDS011;29078;41.932;25.554;2022-10-13T05:31:08;6.97;;;4.18;;
43487;SDS011;29078;41.932;25.554;2022-10-13T05:33:38;9.80;;;4.93;;
43487;SDS011;29078;41.932;25.554;2022-10-13T05:36:11;8.95;;;4.68;;
43487;SDS011;29078;41.932;25.554;2022-10-13T05:38:41;11.75;;;5.45;;
43487;SDS011;29078;41.932;25.554;2022-10-13T05:41:08;6.63;;;4.80;;
43487;SDS011;29078;41.932;25.554;2022-10-13T05:43:35;10.10;;;4.75;;
43487;SDS011;29078;41.932;25.554;2022-10-13T05:46:02;7.55;;;5.88;;
43487;SDS011;29078;41.932;25.554;2022-10-13T05:48:28;9.90;;;5.88;;
43487;SDS011;29078;41.932;25.554;2022-10-13T05:50:54;12.93;;;6.43;;
43487;SDS011;29078;41.932;25.554;2022-10-13T05:53:22;14.05;;;6.82;;
43487;SDS011;29078;41.932;25.554;2022-10-13T05:55:51;10.45;;;8.40;;
43487;SDS011;29078;41.932;25.554;2022-10-13T05:58:20;17.20;;;11.35;;
43487;SDS011;29078;41.932;25.554;2022-10-13T06:00:46;13.23;;;8.40;;
43487;SDS011;29078;41.932;25.554;2022-10-13T06:03:13;9.50;;;7.57;;
43487;SDS011;29078;41.932;25.554;2022-10-13T06:05:40;13.85;;;9.23;;
43487;SDS011;29078;41.932;25.554;2022-10-13T06:08:09;11.05;;;9.45;;
43487;SDS011;29078;41.932;25.554;2022-10-13T06:10:35;12.73;;;8.30;;
43487;SDS011;29078;41.932;25.554;2022-10-13T06:13:01;12.80;;;8.32;;
43487;SDS011;29078;41.932;25.554;2022-10-13T06:15:26;13.65;;;8.35;;
43487;SDS011;29078;41.932;25.554;2022-10-13T06:17:52;10.82;;;8.25;;
43487;SDS011;29078;41.932;25.554;2022-10-13T06:20:17;11.57;;;8.27;;
43487;SDS011;29078;41.932;25.554;2022-10-13T06:22:43;9.68;;;7.53;;
43487;SDS011;29078;41.932;25.554;2022-10-13T06:25:08;12.88;;;8.52;;
43487;SDS011;29078;41.932;25.554;2022-10-13T06:27:34;11.35;;;8.32;;
43487;SDS011;29078;41.932;25.554;2022-10-13T06:29:59;12.60;;;8.50;;
43487;SDS011;29078;41.932;25.554;2022-10-13T06:32:25;11.35;;;9.00;;
43487;SDS011;29078;41.932;25.554;2022-10-13T06:34:50;13.57;;;9.00;;
43487;SDS011;29078;41.932;25.554;2022-10-13T06:37:15;11.90;;;9.98;;
43487;SDS011;29078;41.932;25.554;2022-10-13T06:39:41;14.95;;;12.25;;
43487;SDS011;29078;41.932;25.554;2022-10-13T06:42:07;12.45;;;10.00;;
43487;SDS011;29078;41.932;25.554;2022-10-13T06:44:32;11.05;;;9.10;;
43487;SDS011;29078;41.932;25.554;2022-10-13T06:46:58;10.65;;;8.82;;
43487;SDS011;29078;41.932;25.554;2022-10-13T06:49:24;12.63;;;9.98;;
43487;SDS011;29078;41.932;25.554;2022-10-13T06:51:50;11.82;;;9.30;;
43487;SDS011;29078;41.932;25.554;2022-10-13T06:54:15;14.20;;;10.32;;
43487;SDS011;29078;41.932;25.554;2022-10-13T06:56:41;13.68;;;10.88;;
43487;SDS011;29078;41.932;25.554;2022-10-13T06:59:06;10.88;;;9.02;;
43487;SDS011;29078;41.932;25.554;2022-10-13T07:01:32;11.15;;;9.15;;
43487;SDS011;29078;41.932;25.554;2022-10-13T07:03:57;16.25;;;10.88;;
43487;SDS011;29078;41.932;25.554;2022-10-13T07:06:23;12.48;;;9.95;;
43487;SDS011;29078;41.932;25.554;2022-10-13T07:08:48;10.48;;;9.50;;
43487;SDS011;29078;41.932;25.554;2022-10-13T07:11:14;15.77;;;10.18;;
43487;SDS011;29078;41.932;25.554;2022-10-13T07:13:39;13.70;;;10.95;;
43487;SDS011;29078;41.932;25.554;2022-10-13T07:16:06;14.80;;;11.13;;
43487;SDS011;29078;41.932;25.554;2022-10-13T07:18:32;14.60;;;12.85;;
43487;SDS011;29078;41.932;25.554;2022-10-13T07:20:59;17.02;;;13.13;;
43487;SDS011;29078;41.932;25.554;2022-10-13T07:23:25;14.35;;;12.38;;
43487;SDS011;29078;41.932;25.554;2022-10-13T07:25:51;14.18;;;11.63;;
43487;SDS011;29078;41.932;25.554;2022-10-13T07:28:17;14.05;;;9.93;;
43487;SDS011;29078;41.932;25.554;2022-10-13T07:30:43;11.73;;;9.27;;
43487;SDS011;29078;41.932;25.554;2022-10-13T07:33:09;11.05;;;9.52;;
43487;SDS011;29078;41.932;25.554;2022-10-13T07:35:37;9.00;;;7.68;;
43487;SDS011;29078;41.932;25.554;2022-10-13T07:38:03;10.63;;;8.05;;
43487;SDS011;29078;41.932;25.554;2022-10-13T07:40:29;10.95;;;8.07;;
43487;SDS011;29078;41.932;25.554;2022-10-13T07:42:57;11.75;;;8.35;;
43487;SDS011;29078;41.932;25.554;2022-10-13T07:45:23;11.85;;;9.10;;
43487;SDS011;29078;41.932;25.554;2022-10-13T07:47:49;12.45;;;8.77;;
43487;SDS011;29078;41.932;25.554;2022-10-13T07:50:14;11.20;;;9.88;;
43487;SDS011;29078;41.932;25.554;2022-10-13T07:52:40;9.48;;;8.48;;
43487;SDS011;29078;41.932;25.554;2022-10-13T07:55:06;10.13;;;8.32;;
43487;SDS011;29078;41.932;25.554;2022-10-13T07:57:31;8.30;;;7.43;;
43487;SDS011;29078;41.932;25.554;2022-10-13T07:59:57;10.23;;;6.90;;
43487;SDS011;29078;41.932;25.554;2022-10-13T08:02:22;9.23;;;6.72;;
43487;SDS011;29078;41.932;25.554;2022-10-13T08:04:48;8.82;;;6.60;;
43487;SDS011;29078;41.932;25.554;2022-10-13T08:07:13;9.65;;;7.10;;
43487;SDS011;29078;41.932;25.554;2022-10-13T08:09:40;10.60;;;7.53;;
43487;SDS011;29078;41.932;25.554;2022-10-13T08:12:06;8.98;;;6.63;;
43487;SDS011;29078;41.932;25.554;2022-10-13T08:14:32;5.68;;;4.15;;
43487;SDS011;29078;41.932;25.554;2022-10-13T08:16:57;6.10;;;4.30;;
43487;SDS011;29078;41.932;25.554;2022-10-13T08:19:23;6.00;;;4.53;;
43487;SDS011;29078;41.932;25.554;2022-10-13T08:21:50;6.18;;;4.75;;
43487;SDS011;29078;41.932;25.554;2022-10-13T08:24:17;6.85;;;4.78;;
43487;SDS011;29078;41.932;25.554;2022-10-13T08:26:44;7.95;;;4.28;;
43487;SDS011;29078;41.932;25.554;2022-10-13T08:29:11;6.07;;;4.47;;
43487;SDS011;29078;41.932;25.554;2022-10-13T08:31:37;5.60;;;4.90;;
43487;SDS011;29078;41.932;25.554;2022-10-13T08:34:02;8.07;;;5.95;;
43487;SDS011;29078;41.932;25.554;2022-10-13T08:36:28;7.82;;;5.10;;
43487;SDS011;29078;41.932;25.554;2022-10-13T08:38:53;7.90;;;5.90;;
43487;SDS011;29078;41.932;25.554;2022-10-13T08:41:20;7.22;;;3.70;;
43487;SDS011;29078;41.932;25.554;2022-10-13T08:43:53;8.77;;;4.53;;
43487;SDS011;29078;41.932;25.554;2022-10-13T08:46:25;4.15;;;2.83;;
43487;SDS011;29078;41.932;25.554;2022-10-13T08:48:56;6.85;;;3.75;;
43487;SDS011;29078;41.932;25.554;2022-10-13T08:51:25;5.75;;;3.58;;
43487;SDS011;29078;41.932;25.554;2022-10-13T08:53:52;5.93;;;3.20;;
43487;SDS011;29078;41.932;25.554;2022-10-13T08:58:47;5.53;;;3.80;;
43487;SDS011;29078;41.932;25.554;2022-10-13T09:01:18;4.15;;;3.45;;
43487;SDS011;29078;41.932;25.554;2022-10-13T09:03:50;6.75;;;3.55;;
43487;SDS011;29078;41.932;25.554;2022-10-13T09:06:25;6.13;;;3.38;;
43487;SDS011;29078;41.932;25.554;2022-10-13T09:11:25;4.05;;;2.92;;
43487;SDS011;29078;41.932;25.554;2022-10-13T09:13:53;5.95;;;3.45;;
43487;SDS011;29078;41.932;25.554;2022-10-13T09:16:29;7.15;;;4.45;;
43487;SDS011;29078;41.932;25.554;2022-10-13T09:19:18;7.28;;;3.60;;
43487;SDS011;29078;41.932;25.554;2022-10-13T09:21:47;8.35;;;5.25;;
43487;SDS011;29078;41.932;25.554;2022-10-13T09:24:14;5.60;;;4.15;;
43487;SDS011;29078;41.932;25.554;2022-10-13T09:26:42;5.25;;;3.80;;
43487;SDS011;29078;41.932;25.554;2022-10-13T09:29:10;5.78;;;4.13;;
43487;SDS011;29078;41.932;25.554;2022-10-13T09:31:39;10.07;;;6.10;;
43487;SDS011;29078;41.932;25.554;2022-10-13T09:34:21;7.68;;;6.20;;
43487;SDS011;29078;41.932;25.554;2022-10-13T09:36:55;9.15;;;7.20;;
43487;SDS011;29078;41.932;25.554;2022-10-13T09:39:24;5.30;;;3.90;;
43487;SDS011;29078;41.932;25.554;2022-10-13T09:41:50;4.63;;;3.60;;
43487;SDS011;29078;41.932;25.554;2022-10-13T09:44:18;6.18;;;4.75;;
43487;SDS011;29078;41.932;25.554;2022-10-13T09:46:54;4.88;;;3.75;;
43487;SDS011;29078;41.932;25.554;2022-10-13T09:51:57;8.55;;;7.30;;
43487;SDS011;29078;41.932;25.554;2022-10-13T09:57:04;8.90;;;3.63;;
43487;SDS011;29078;41.932;25.554;2022-10-13T09:59:51;7.35;;;4.20;;
43487;SDS011;29078;41.932;25.554;2022-10-13T10:02:26;5.10;;;3.53;;
43487;SDS011;29078;41.932;25.554;2022-10-13T10:04:57;7.20;;;4.07;;
43487;SDS011;29078;41.932;25.554;2022-10-13T10:07:29;7.15;;;4.07;;
43487;SDS011;29078;41.932;25.554;2022-10-13T10:10:00;9.18;;;3.72;;
43487;SDS011;29078;41.932;25.554;2022-10-13T10:12:30;6.82;;;3.50;;
43487;SDS011;29078;41.932;25.554;2022-10-13T10:15:00;6.10;;;4.22;;
43487;SDS011;29078;41.932;25.554;2022-10-13T10:25:40;4.50;;;2.70;;
43487;SDS011;29078;41.932;25.554;2022-10-13T10:31:01;10.73;;;5.45;;
43487;SDS011;29078;41.932;25.554;2022-10-13T10:33:39;7.13;;;3.20;;
43487;SDS011;29078;41.932;25.554;2022-10-13T10:36:20;5.60;;;2.75;;
43487;SDS011;29078;41.932;25.554;2022-10-13T10:46:41;4.68;;;2.60;;
43487;SDS011;29078;41.932;25.554;2022-10-13T10:51:42;5.50;;;3.28;;
43487;SDS011;29078;41.932;25.554;2022-10-13T10:54:15;4.68;;;2.58;;
43487;SDS011;29078;41.932;25.554;2022-10-13T10:56:48;7.35;;;3.03;;
43487;SDS011;29078;41.932;25.554;2022-10-13T11:02:34;5.93;;;2.17;;
43487;SDS011;29078;41.932;25.554;2022-10-13T11:05:14;5.28;;;4.25;;
43487;SDS011;29078;41.932;25.554;2022-10-13T11:15:18;6.13;;;2.65;;
43487;SDS011;29078;41.932;25.554;2022-10-13T11:17:48;4.25;;;2.40;;
43487;SDS011;29078;41.932;25.554;2022-10-13T11:30:48;5.50;;;2.33;;
43487;SDS011;29078;41.932;25.554;2022-10-13T11:55:36;3.67;;;2.25;;
43487;SDS011;29078;41.932;25.554;2022-10-13T12:03:40;5.40;;;2.92;;
43487;SDS011;29078;41.932;25.554;2022-10-13T12:08:59;10.70;;;5.40;;
43487;SDS011;29078;41.932;25.554;2022-10-13T12:11:27;3.83;;;2.90;;
43487;SDS011;29078;41.932;25.554;2022-10-13T12:13:56;9.85;;;7.85;;
43487;SDS011;29078;41.932;25.554;2022-10-13T12:16:21;9.55;;;8.57;;
43487;SDS011;29078;41.932;25.554;2022-10-13T12:18:47;7.05;;;5.20;;
43487;SDS011;29078;41.932;25.554;2022-10-13T12:21:17;3.25;;;2.47;;
43487;SDS011;29078;41.932;25.554;2022-10-13T12:23:45;6.68;;;5.25;;
43487;SDS011;29078;41.932;25.554;2022-10-13T12:26:21;5.13;;;2.63;;
43487;SDS011;29078;41.932;25.554;2022-10-13T12:28:53;3.40;;;2.58;;
43487;SDS011;29078;41.932;25.554;2022-10-13T12:31:22;4.53;;;4.07;;
43487;SDS011;29078;41.932;25.554;2022-10-13T12:33:55;4.03;;;3.22;;
43487;SDS011;29078;41.932;25.554;2022-10-13T12:36:26;4.57;;;2.13;;
43487;SDS011;29078;41.932;25.554;2022-10-13T12:38:56;6.25;;;3.33;;
43487;SDS011;29078;41.932;25.554;2022-10-13T12:41:29;7.25;;;6.32;;
43487;SDS011;29078;41.932;25.554;2022-10-13T12:43:56;8.07;;;6.20;;
43487;SDS011;29078;41.932;25.554;2022-10-13T12:52:12;4.45;;;3.35;;
43487;SDS011;29078;41.932;25.554;2022-10-13T12:54:49;5.85;;;2.80;;
43487;SDS011;29078;41.932;25.554;2022-10-13T13:00:23;2.10;;;1.90;;
43487;SDS011;29078;41.932;25.554;2022-10-13T13:07:57;4.40;;;2.80;;
43487;SDS011;29078;41.932;25.554;2022-10-13T13:10:23;8.13;;;2.80;;
43487;SDS011;29078;41.932;25.554;2022-10-13T13:12:49;7.43;;;3.35;;
43487;SDS011;29078;41.932;25.554;2022-10-13T13:21:03;5.70;;;2.80;;
43487;SDS011;29078;41.932;25.554;2022-10-13T13:23:30;7.63;;;3.80;;
43487;SDS011;29078;41.932;25.554;2022-10-13T13:25:59;5.30;;;2.70;;
43487;SDS011;29078;41.932;25.554;2022-10-13T13:31:12;7.20;;;2.35;;
43487;SDS011;29078;41.932;25.554;2022-10-13T13:33:38;6.97;;;2.42;;
43487;SDS011;29078;41.932;25.554;2022-10-13T13:36:04;5.35;;;3.17;;
43487;SDS011;29078;41.932;25.554;2022-10-13T13:38:37;4.18;;;2.30;;
43487;SDS011;29078;41.932;25.554;2022-10-13T13:41:03;4.50;;;2.55;;
43487;SDS011;29078;41.932;25.554;2022-10-13T13:43:28;5.20;;;2.35;;
43487;SDS011;29078;41.932;25.554;2022-10-13T13:45:54;7.22;;;3.35;;
43487;SDS011;29078;41.932;25.554;2022-10-13T13:48:19;6.18;;;3.25;;
43487;SDS011;29078;41.932;25.554;2022-10-13T13:50:44;6.60;;;3.05;;
43487;SDS011;29078;41.932;25.554;2022-10-13T13:53:10;6.90;;;3.28;;
43487;SDS011;29078;41.932;25.554;2022-10-13T13:55:35;4.57;;;2.70;;
43487;SDS011;29078;41.932;25.554;2022-10-13T13:58:01;6.10;;;2.50;;
43487;SDS011;29078;41.932;25.554;2022-10-13T14:00:27;6.40;;;2.22;;
43487;SDS011;29078;41.932;25.554;2022-10-13T14:02:53;6.38;;;2.50;;
43487;SDS011;29078;41.932;25.554;2022-10-13T14:05:19;4.95;;;2.17;;
43487;SDS011;29078;41.932;25.554;2022-10-13T14:07:46;8.30;;;3.83;;
43487;SDS011;29078;41.932;25.554;2022-10-13T14:10:11;7.40;;;5.50;;
43487;SDS011;29078;41.932;25.554;2022-10-13T14:12:37;13.05;;;4.43;;
43487;SDS011;29078;41.932;25.554;2022-10-13T14:15:03;7.50;;;3.92;;
43487;SDS011;29078;41.932;25.554;2022-10-13T14:17:28;6.20;;;2.95;;
43487;SDS011;29078;41.932;25.554;2022-10-13T14:19:54;9.50;;;3.17;;
43487;SDS011;29078;41.932;25.554;2022-10-13T14:22:19;5.70;;;2.40;;
43487;SDS011;29078;41.932;25.554;2022-10-13T14:24:45;9.40;;;2.60;;
43487;SDS011;29078;41.932;25.554;2022-10-13T14:27:11;5.20;;;2.70;;
43487;SDS011;29078;41.932;25.554;2022-10-13T14:29:36;9.20;;;3.13;;
43487;SDS011;29078;41.932;25.554;2022-10-13T14:32:02;6.93;;;3.10;;
43487;SDS011;29078;41.932;25.554;2022-10-13T14:34:28;10.52;;;4.50;;
43487;SDS011;29078;41.932;25.554;2022-10-13T14:36:54;6.53;;;3.30;;
43487;SDS011;29078;41.932;25.554;2022-10-13T14:39:19;8.95;;;3.33;;
43487;SDS011;29078;41.932;25.554;2022-10-13T14:41:45;6.07;;;3.58;;
43487;SDS011;29078;41.932;25.554;2022-10-13T14:44:11;4.43;;;2.65;;
43487;SDS011;29078;41.932;25.554;2022-10-13T14:46:37;7.82;;;2.80;;
43487;SDS011;29078;41.932;25.554;2022-10-13T14:49:03;5.65;;;3.20;;
43487;SDS011;29078;41.932;25.554;2022-10-13T14:51:28;4.93;;;2.42;;
43487;SDS011;29078;41.932;25.554;2022-10-13T14:53:53;4.78;;;2.00;;
43487;SDS011;29078;41.932;25.554;2022-10-13T14:58:45;6.75;;;2.13;;
43487;SDS011;29078;41.932;25.554;2022-10-13T15:01:11;5.43;;;2.05;;
43487;SDS011;29078;41.932;25.554;2022-10-13T15:03:37;6.82;;;2.85;;
43487;SDS011;29078;41.932;25.554;2022-10-13T15:06:02;6.03;;;2.97;;
43487;SDS011;29078;41.932;25.554;2022-10-13T15:08:28;8.82;;;3.45;;
43487;SDS011;29078;41.932;25.554;2022-10-13T15:10:57;7.97;;;3.05;;
43487;SDS011;29078;41.932;25.554;2022-10-13T15:13:23;12.05;;;3.42;;
43487;SDS011;29078;41.932;25.554;2022-10-13T15:15:49;9.73;;;3.33;;
43487;SDS011;29078;41.932;25.554;2022-10-13T15:18:14;11.73;;;3.90;;
43487;SDS011;29078;41.932;25.554;2022-10-13T15:20:43;8.90;;;4.47;;
43487;SDS011;29078;41.932;25.554;2022-10-13T15:23:10;11.82;;;4.28;;
43487;SDS011;29078;41.932;25.554;2022-10-13T15:25:36;14.45;;;4.90;;
43487;SDS011;29078;41.932;25.554;2022-10-13T15:28:01;13.32;;;5.47;;
43487;SDS011;29078;41.932;25.554;2022-10-13T15:30:27;11.15;;;5.05;;
43487;SDS011;29078;41.932;25.554;2022-10-13T15:32:52;10.35;;;4.35;;
43487;SDS011;29078;41.932;25.554;2022-10-13T15:35:17;13.48;;;4.78;;
43487;SDS011;29078;41.932;25.554;2022-10-13T15:37:43;13.90;;;5.40;;
43487;SDS011;29078;41.932;25.554;2022-10-13T15:40:08;20.50;;;5.50;;
43487;SDS011;29078;41.932;25.554;2022-10-13T15:42:34;23.10;;;6.35;;
43487;SDS011;29078;41.932;25.554;2022-10-13T15:44:59;17.15;;;6.43;;
43487;SDS011;29078;41.932;25.554;2022-10-13T15:47:25;12.55;;;6.10;;
43487;SDS011;29078;41.932;25.554;2022-10-13T15:49:50;21.02;;;5.68;;
43487;SDS011;29078;41.932;25.554;2022-10-13T15:52:16;14.43;;;5.57;;
43487;SDS011;29078;41.932;25.554;2022-10-13T15:54:41;13.15;;;5.60;;
43487;SDS011;29078;41.932;25.554;2022-10-13T15:57:06;19.65;;;6.13;;
43487;SDS011;29078;41.932;25.554;2022-10-13T15:59:32;15.73;;;5.60;;
43487;SDS011;29078;41.932;25.554;2022-10-13T16:01:57;16.27;;;6.28;;
43487;SDS011;29078;41.932;25.554;2022-10-13T16:04:22;15.45;;;6.57;;
43487;SDS011;29078;41.932;25.554;2022-10-13T16:06:48;17.35;;;7.30;;
43487;SDS011;29078;41.932;25.554;2022-10-13T16:09:13;16.13;;;7.35;;
43487;SDS011;29078;41.932;25.554;2022-10-13T16:11:39;15.68;;;6.32;;
43487;SDS011;29078;41.932;25.554;2022-10-13T16:14:04;16.65;;;7.82;;
43487;SDS011;29078;41.932;25.554;2022-10-13T16:16:29;14.35;;;7.30;;
43487;SDS011;29078;41.932;25.554;2022-10-13T16:18:55;19.50;;;7.82;;
43487;SDS011;29078;41.932;25.554;2022-10-13T16:21:21;16.67;;;6.72;;
43487;SDS011;29078;41.932;25.554;2022-10-13T16:23:49;17.35;;;6.78;;
43487;SDS011;29078;41.932;25.554;2022-10-13T16:26:15;14.57;;;5.95;;
43487;SDS011;29078;41.932;25.554;2022-10-13T16:28:41;19.90;;;6.78;;
43487;SDS011;29078;41.932;25.554;2022-10-13T16:31:08;16.05;;;6.57;;
43487;SDS011;29078;41.932;25.554;2022-10-13T16:33:38;16.90;;;6.38;;
43487;SDS011;29078;41.932;25.554;2022-10-13T16:36:05;13.55;;;6.65;;
43487;SDS011;29078;41.932;25.554;2022-10-13T16:38:34;14.98;;;6.95;;
43487;SDS011;29078;41.932;25.554;2022-10-13T16:41:04;12.68;;;6.63;;
43487;SDS011;29078;41.932;25.554;2022-10-13T16:43:31;21.27;;;7.20;;
43487;SDS011;29078;41.932;25.554;2022-10-13T16:45:58;23.25;;;7.70;;